createdAt,value
2022-10-29T00:01:51.585Z,11.20
2022-10-29T00:04:19.281Z,13.80
2022-10-29T00:09:17.510Z,12.33
2022-10-29T00:11:45.426Z,13.10
2022-10-29T00:14:12.947Z,10.93
2022-10-29T00:16:40.843Z,21.33
2022-10-29T00:19:10.204Z,12.80
2022-10-29T00:21:40.428Z,8.50
2022-10-29T00:24:10.396Z,18.53
2022-10-29T00:26:37.979Z,9.70
2022-10-29T00:29:06.615Z,11.07
2022-10-29T00:31:34.991Z,11.37
2022-10-29T00:34:03.212Z,7.80
2022-10-29T00:36:34.660Z,11.10
2022-10-29T00:39:02.300Z,17.30
2022-10-29T00:41:30.786Z,17.17
2022-10-29T00:44:31.588Z,17.33
2022-10-29T00:47:03.693Z,13.73
2022-10-29T00:49:33.270Z,12.03
2022-10-29T00:52:04.101Z,8.07
2022-10-29T00:54:35.704Z,9.67
2022-10-29T00:57:11.197Z,13.90
2022-10-29T00:59:39.574Z,17.57
2022-10-29T01:02:07.707Z,14.73
2022-10-29T01:04:37.175Z,14.63
2022-10-29T01:07:14.517Z,12.30
2022-10-29T01:09:43.295Z,13.70
2022-10-29T01:12:28.355Z,12.97
2022-10-29T01:15:05.407Z,8.80
2022-10-29T01:17:45.574Z,15.73
2022-10-29T01:20:33.216Z,13.27
2022-10-29T01:23:12.711Z,12.93
2022-10-29T01:26:03.146Z,12.43
2022-10-29T01:28:42.886Z,12.73
2022-10-29T01:31:31.946Z,13.63
2022-10-29T01:34:07.644Z,10.07
2022-10-29T01:36:42.466Z,14.90
2022-10-29T01:39:21.955Z,14.70
2022-10-29T01:41:54.984Z,12.53
2022-10-29T01:44:33.518Z,12.07
2022-10-29T01:47:04.586Z,11.47
2022-10-29T01:49:36.549Z,18.63
2022-10-29T01:52:07.047Z,11.13
2022-10-29T01:54:34.921Z,14.70
2022-10-29T01:57:04.490Z,12.30
2022-10-29T01:59:51.543Z,12.27
2022-10-29T02:02:29.533Z,11.37
2022-10-29T02:05:07.317Z,13.53
2022-10-29T02:07:45.716Z,15.93
2022-10-29T02:10:22.883Z,8.47
2022-10-29T02:12:53.138Z,13.70
2022-10-29T02:15:28.198Z,13.37
2022-10-29T02:18:04.418Z,13.07
2022-10-29T02:20:32.317Z,13.63
2022-10-29T02:23:01.994Z,12.47
2022-10-29T02:25:30.367Z,12.43
2022-10-29T02:28:02.996Z,17.13
2022-10-29T02:30:31.928Z,11.60
2022-10-29T02:33:00.971Z,17.10
2022-10-29T02:35:29.844Z,12.67
2022-10-29T02:37:58.051Z,10.00
2022-10-29T02:40:25.684Z,12.60
2022-10-29T02:42:55.178Z,13.53
2022-10-29T02:45:23.058Z,12.53
2022-10-29T02:47:50.960Z,17.13
2022-10-29T02:50:20.106Z,12.50
2022-10-29T02:52:48.466Z,12.53
2022-10-29T02:55:16.122Z,8.20
2022-10-29T02:57:47.541Z,8.47
2022-10-29T03:00:16.287Z,18.03
2022-10-29T03:02:43.849Z,8.73
2022-10-29T03:05:11.485Z,11.40
2022-10-29T03:07:40.496Z,12.40
2022-10-29T03:10:09.143Z,14.47
2022-10-29T03:12:38.224Z,17.27
2022-10-29T03:15:06.686Z,9.00
2022-10-29T03:17:34.236Z,18.43
2022-10-29T03:20:01.937Z,13.00
2022-10-29T03:22:29.515Z,16.77
2022-10-29T03:24:58.512Z,10.67
2022-10-29T03:27:28.306Z,16.23
2022-10-29T03:29:56.148Z,10.10
2022-10-29T03:32:24.325Z,9.20
2022-10-29T03:34:56.037Z,14.33
2022-10-29T03:37:26.851Z,11.33
2022-10-29T03:39:55.034Z,17.03
2022-10-29T03:42:24.070Z,12.60
2022-10-29T03:44:51.599Z,9.63
2022-10-29T03:47:19.146Z,9.93
2022-10-29T03:49:46.709Z,11.20
2022-10-29T03:52:14.384Z,20.77
2022-10-29T03:54:41.928Z,11.27
2022-10-29T03:57:09.569Z,15.83
2022-10-29T03:59:38.474Z,8.83
2022-10-29T04:02:06.424Z,18.53
2022-10-29T04:04:34.361Z,11.87
2022-10-29T04:07:02.998Z,14.40
2022-10-29T04:09:31.598Z,13.63
2022-10-29T04:11:59.201Z,11.53
2022-10-29T04:14:26.744Z,10.50
2022-10-29T04:16:55.652Z,11.47
2022-10-29T04:19:23.243Z,14.17
2022-10-29T04:32:47.791Z,8.77
2022-10-29T04:35:15.691Z,23.23
2022-10-29T04:37:43.430Z,18.67
2022-10-29T04:40:14.108Z,14.90
2022-10-29T04:42:41.902Z,15.33
2022-10-29T04:45:10.470Z,14.17
2022-10-29T04:47:38.036Z,12.40
2022-10-29T04:50:07.561Z,15.93
2022-10-29T04:52:37.456Z,11.27
2022-10-29T04:55:05.726Z,16.33
2022-10-29T04:57:33.280Z,9.30
2022-10-29T05:00:00.953Z,10.37
2022-10-29T05:02:28.778Z,16.80
2022-10-29T05:04:57.379Z,10.63
2022-10-29T05:07:26.351Z,8.13
2022-10-29T05:09:54.201Z,15.37
2022-10-29T05:12:22.050Z,12.43
2022-10-29T05:14:49.662Z,10.47
2022-10-29T05:17:17.529Z,19.83
2022-10-29T05:19:47.187Z,9.30
2022-10-29T05:22:15.000Z,8.80
2022-10-29T05:24:44.046Z,18.17
2022-10-29T05:27:11.606Z,15.87
2022-10-29T05:29:39.220Z,19.17
2022-10-29T05:32:06.959Z,11.77
2022-10-29T05:34:34.631Z,11.80
2022-10-29T05:37:02.183Z,11.87
2022-10-29T05:39:29.867Z,16.67
2022-10-29T05:41:58.956Z,15.10
2022-10-29T05:44:26.456Z,9.80
2022-10-29T05:46:54.045Z,8.13
2022-10-29T05:49:21.614Z,16.03
2022-10-29T05:51:49.373Z,8.83
2022-10-29T05:54:16.935Z,13.00
2022-10-29T05:56:44.527Z,11.63
2022-10-29T05:59:13.486Z,9.40
2022-10-29T06:01:41.364Z,13.10
2022-10-29T06:04:09.250Z,12.63
2022-10-29T06:06:38.750Z,13.37
2022-10-29T06:09:06.595Z,15.27
2022-10-29T06:11:34.331Z,12.47
2022-10-29T06:14:01.974Z,15.00
2022-10-29T06:16:30.922Z,17.63
2022-10-29T06:18:58.790Z,10.03
2022-10-29T06:21:26.359Z,11.60
2022-10-29T06:23:55.712Z,12.17
2022-10-29T06:26:23.397Z,13.60
2022-10-29T06:28:50.983Z,11.67
2022-10-29T06:31:18.734Z,26.83
2022-10-29T06:33:47.713Z,13.60
2022-10-29T06:36:15.288Z,11.50
2022-10-29T06:38:43.147Z,12.23
2022-10-29T06:41:10.851Z,14.10
2022-10-29T06:43:38.590Z,9.80
2022-10-29T06:46:06.455Z,15.30
2022-10-29T06:48:34.169Z,16.20
2022-10-29T06:51:03.426Z,11.60
2022-10-29T06:53:30.966Z,11.50
2022-10-29T06:55:59.895Z,16.67
2022-10-29T06:58:27.655Z,18.50
2022-10-29T07:00:55.338Z,14.50
2022-10-29T07:03:23.379Z,13.47
2022-10-29T07:05:57.846Z,16.90
2022-10-29T07:08:28.100Z,12.77
2022-10-29T07:10:55.754Z,16.83
2022-10-29T07:13:23.401Z,9.33
2022-10-29T07:15:51.003Z,12.90
2022-10-29T07:18:18.601Z,13.30
2022-10-29T07:20:46.479Z,17.17
2022-10-29T07:23:14.781Z,13.30
2022-10-29T07:25:43.766Z,16.00
2022-10-29T07:28:14.005Z,17.40
2022-10-29T07:30:42.101Z,17.43
2022-10-29T07:33:09.793Z,14.47
2022-10-29T07:35:37.649Z,10.30
2022-10-29T07:38:08.986Z,16.03
2022-10-29T07:40:38.237Z,18.40
2022-10-29T07:43:07.282Z,17.10
2022-10-29T07:45:35.361Z,10.90
2022-10-29T07:48:05.124Z,23.67
2022-10-29T07:50:33.217Z,17.53
2022-10-29T07:53:01.020Z,14.90
2022-10-29T07:57:58.937Z,24.97
2022-10-29T08:00:28.169Z,11.37
2022-10-29T08:02:56.445Z,25.77
2022-10-29T08:05:25.572Z,10.30
2022-10-29T08:07:54.486Z,10.80
2022-10-29T08:10:22.607Z,22.83
2022-10-29T08:12:51.262Z,14.03
2022-10-29T08:15:19.333Z,22.60
2022-10-29T08:17:48.788Z,15.03
2022-10-29T08:20:17.023Z,12.83
2022-10-29T08:22:44.962Z,18.47
2022-10-29T08:25:13.094Z,11.17
2022-10-29T08:27:41.051Z,12.93
2022-10-29T08:30:11.443Z,11.13
2022-10-29T08:32:47.593Z,16.73
2022-10-29T08:35:16.587Z,10.17
2022-10-29T08:37:44.915Z,12.80
2022-10-29T08:40:20.968Z,9.93
2022-10-29T08:43:03.770Z,14.57
2022-10-29T08:45:36.029Z,14.27
2022-10-29T08:48:27.640Z,13.47
2022-10-29T08:51:04.246Z,16.57
2022-10-29T08:53:37.601Z,16.50
2022-10-29T08:56:08.331Z,10.17
2022-10-29T08:58:40.546Z,17.83
2022-10-29T09:01:12.293Z,17.13
2022-10-29T09:03:40.222Z,10.40
2022-10-29T09:06:12.212Z,12.10
2022-10-29T09:08:52.149Z,18.23
2022-10-29T09:11:34.830Z,22.47
2022-10-29T09:14:18.222Z,18.07
2022-10-29T09:16:55.496Z,14.97
2022-10-29T09:19:42.054Z,16.40
2022-10-29T09:22:18.248Z,15.23
2022-10-29T09:24:57.445Z,16.23
2022-10-29T09:27:36.972Z,11.20
2022-10-29T09:30:20.560Z,15.80
2022-10-29T09:32:57.631Z,12.30
2022-10-29T09:35:37.153Z,13.40
2022-10-29T09:38:13.891Z,15.80
2022-10-29T09:40:43.877Z,14.90
2022-10-29T09:43:20.616Z,15.30
2022-10-29T09:45:57.721Z,15.00
2022-10-29T09:48:31.097Z,12.93
2022-10-29T09:51:06.877Z,15.13
2022-10-29T09:53:35.969Z,29.13
2022-10-29T09:56:07.686Z,17.70
2022-10-29T09:58:39.435Z,13.00
2022-10-29T10:01:07.845Z,16.60
2022-10-29T10:03:41.835Z,21.93
2022-10-29T10:06:11.080Z,16.30
2022-10-29T10:09:04.472Z,14.40
2022-10-29T10:11:38.889Z,23.37
2022-10-29T10:14:15.349Z,12.97
2022-10-29T10:16:43.518Z,19.57
2022-10-29T10:19:22.816Z,11.37
2022-10-29T10:21:58.268Z,16.20
2022-10-29T10:24:33.049Z,16.97
2022-10-29T10:27:01.076Z,15.13
2022-10-29T10:29:29.237Z,15.33
2022-10-29T10:32:13.160Z,14.33
2022-10-29T10:34:40.756Z,13.33
2022-10-29T10:37:15.443Z,12.47
2022-10-29T10:39:46.817Z,11.83
2022-10-29T10:42:20.644Z,12.60
2022-10-29T10:44:52.894Z,15.47
2022-10-29T10:47:23.068Z,14.33
2022-10-29T10:49:50.783Z,11.83
2022-10-29T10:52:21.924Z,15.00
2022-10-29T10:54:59.353Z,12.90
2022-10-29T10:57:30.959Z,14.40
2022-10-29T11:00:04.904Z,12.20
2022-10-29T11:02:42.555Z,19.53
2022-10-29T11:05:16.890Z,15.13
2022-10-29T11:07:49.524Z,21.43
2022-10-29T11:10:21.222Z,14.60
2022-10-29T11:12:54.291Z,14.63
2022-10-29T11:15:31.696Z,12.40
2022-10-29T11:18:03.951Z,12.00
2022-10-29T11:20:35.596Z,12.40
2022-10-29T11:23:23.439Z,18.67
2022-10-29T11:25:57.345Z,9.60
2022-10-29T11:28:31.423Z,17.60
2022-10-29T11:31:09.889Z,18.27
2022-10-29T11:33:47.940Z,11.40
2022-10-29T11:36:21.199Z,14.00
2022-10-29T11:38:52.984Z,15.10
2022-10-29T11:41:28.821Z,19.90
2022-10-29T11:43:57.518Z,12.80
2022-10-29T11:46:34.869Z,24.50
2022-10-29T11:49:17.178Z,13.23
2022-10-29T11:51:52.812Z,16.40
2022-10-29T11:54:36.313Z,9.03
2022-10-29T11:57:16.161Z,8.27
2022-10-29T12:00:05.038Z,19.90
2022-10-29T12:02:54.844Z,9.30
2022-10-29T12:05:31.119Z,15.93
2022-10-29T12:08:15.356Z,12.00
2022-10-29T12:10:55.578Z,16.03
2022-10-29T12:13:35.926Z,17.17
2022-10-29T12:16:15.562Z,21.20
2022-10-29T12:18:51.896Z,11.63
2022-10-29T12:21:29.441Z,12.87
2022-10-29T12:24:14.231Z,12.63
2022-10-29T12:26:45.421Z,19.03
2022-10-29T12:29:19.565Z,13.83
2022-10-29T12:31:56.780Z,10.73
2022-10-29T12:34:31.583Z,10.10
2022-10-29T12:37:08.366Z,13.13
2022-10-29T12:39:37.772Z,8.50
2022-10-29T12:42:14.329Z,9.07
2022-10-29T12:44:51.618Z,7.77
2022-10-29T12:47:25.936Z,8.43
2022-10-29T12:50:03.990Z,14.93
2022-10-29T12:52:39.663Z,8.13
2022-10-29T12:55:10.484Z,8.03
2022-10-29T12:57:38.194Z,8.80
2022-10-29T13:00:45.711Z,13.20
2022-10-29T13:03:13.418Z,13.23
2022-10-29T13:05:43.565Z,9.63
2022-10-29T13:08:35.010Z,12.03
2022-10-29T13:11:02.949Z,16.10
2022-10-29T13:13:53.378Z,7.60
2022-10-29T13:16:28.872Z,9.47
2022-10-29T13:19:19.106Z,11.30
2022-10-29T13:22:17.917Z,16.20
2022-10-29T13:24:45.521Z,8.93
2022-10-29T13:27:36.260Z,14.30
2022-10-29T13:30:21.878Z,12.63
2022-10-29T13:32:50.810Z,8.60
2022-10-29T13:35:41.346Z,7.80
2022-10-29T13:38:19.387Z,13.23
2022-10-29T13:41:08.510Z,8.37
2022-10-29T13:43:36.222Z,11.40
2022-10-29T13:46:45.420Z,14.43
2022-10-29T13:49:18.895Z,12.43
2022-10-29T13:51:53.481Z,17.13
2022-10-29T13:57:00.262Z,9.00
2022-10-29T13:59:39.255Z,13.53
2022-10-29T14:02:21.026Z,15.50
2022-10-29T14:04:55.808Z,8.47
2022-10-29T14:07:31.177Z,11.73
2022-10-29T14:10:03.378Z,13.17
2022-10-29T14:12:32.304Z,9.60
2022-10-29T14:15:04.436Z,14.50
2022-10-29T14:17:32.073Z,10.30
2022-10-29T14:20:00.992Z,12.73
2022-10-29T14:22:37.981Z,11.83
2022-10-29T14:25:28.314Z,16.70
2022-10-29T14:28:17.332Z,14.17
2022-10-29T14:30:45.435Z,16.13
2022-10-29T14:33:25.790Z,16.10
2022-10-29T14:35:59.480Z,14.47
2022-10-29T14:38:33.422Z,14.73
2022-10-29T14:41:01.521Z,15.00
2022-10-29T14:43:29.993Z,14.27
2022-10-29T14:46:10.219Z,15.13
2022-10-29T14:48:38.588Z,12.13
2022-10-29T14:51:07.843Z,13.83
2022-10-29T14:53:39.376Z,14.53
2022-10-29T14:56:12.096Z,14.13
2022-10-29T14:58:39.880Z,11.17
2022-10-29T15:01:13.432Z,15.50
2022-10-29T15:03:41.525Z,13.63
2022-10-29T15:06:15.845Z,18.23
2022-10-29T15:08:45.852Z,11.83
2022-10-29T15:11:33.748Z,12.47
2022-10-29T15:14:01.823Z,13.73
2022-10-29T15:16:31.389Z,13.03
2022-10-29T15:19:01.000Z,10.60
2022-10-29T15:21:32.250Z,15.87
2022-10-29T15:24:06.676Z,10.70
2022-10-29T15:26:36.849Z,14.43
2022-10-29T15:29:11.013Z,15.33
2022-10-29T15:31:45.115Z,12.83
2022-10-29T15:34:18.109Z,16.00
2022-10-29T15:36:49.000Z,10.63
2022-10-29T15:39:22.960Z,13.80
2022-10-29T15:41:51.502Z,9.67
2022-10-29T15:44:31.652Z,19.80
2022-10-29T15:47:00.615Z,16.43
2022-10-29T15:49:31.527Z,13.57
2022-10-29T15:52:02.151Z,28.40
2022-10-29T15:54:30.433Z,21.17
2022-10-29T15:56:57.997Z,19.50
2022-10-29T15:59:27.396Z,16.47
2022-10-29T16:01:55.250Z,10.90
2022-10-29T16:04:22.915Z,11.20
2022-10-29T16:06:50.509Z,24.00
2022-10-29T16:09:21.716Z,16.80
2022-10-29T16:11:50.608Z,13.27
2022-10-29T16:14:18.141Z,14.00
2022-10-29T16:16:46.016Z,13.57
2022-10-29T16:19:13.709Z,19.23
2022-10-29T16:21:41.416Z,15.80
2022-10-29T16:24:14.145Z,15.80
2022-10-29T16:26:43.263Z,16.83
2022-10-29T16:29:11.122Z,14.53
2022-10-29T16:31:38.870Z,20.37
2022-10-29T16:34:07.577Z,15.90
2022-10-29T16:36:35.142Z,17.10
2022-10-29T16:39:02.765Z,13.10
2022-10-29T16:41:31.350Z,13.43
2022-10-29T16:44:00.236Z,11.40
2022-10-29T16:46:27.833Z,18.53
2022-10-29T16:48:55.385Z,14.57
2022-10-29T16:51:22.938Z,15.10
2022-10-29T16:53:50.454Z,14.83
2022-10-29T16:56:17.966Z,19.40
2022-10-29T16:58:45.464Z,13.30
2022-10-29T17:01:14.553Z,16.33
2022-10-29T17:03:42.250Z,13.47
2022-10-29T17:06:11.722Z,15.17
2022-10-29T17:08:39.955Z,15.70
2022-10-29T17:11:10.168Z,9.90
2022-10-29T17:13:38.603Z,16.00
2022-10-29T17:16:10.296Z,11.60
2022-10-29T17:18:39.603Z,16.97
2022-10-29T17:21:07.227Z,29.93
2022-10-29T17:23:34.836Z,15.50
2022-10-29T17:26:03.829Z,14.63
2022-10-29T17:28:31.546Z,14.30
2022-10-29T17:30:59.280Z,24.90
2022-10-29T17:33:27.102Z,17.70
2022-10-29T17:36:03.385Z,15.80
2022-10-29T17:38:31.066Z,20.70
2022-10-29T17:40:58.996Z,18.47
2022-10-29T17:43:26.623Z,23.70
2022-10-29T17:45:54.325Z,22.50
2022-10-29T17:48:24.110Z,31.87
2022-10-29T17:50:54.399Z,26.07
2022-10-29T17:53:23.962Z,26.17
2022-10-29T17:55:51.893Z,23.43
2022-10-29T17:58:19.846Z,25.00
2022-10-29T18:00:49.337Z,29.53
2022-10-29T18:03:17.267Z,27.13
2022-10-29T18:05:45.402Z,20.63
2022-10-29T18:08:12.971Z,16.93
2022-10-29T18:10:41.871Z,22.07
2022-10-29T18:13:09.481Z,22.67
2022-10-29T18:15:37.126Z,15.80
2022-10-29T18:18:04.930Z,19.97
2022-10-29T18:20:32.532Z,29.10
2022-10-29T18:23:00.432Z,24.93
2022-10-29T18:25:28.452Z,23.70
2022-10-29T18:27:57.390Z,20.10
2022-10-29T18:30:24.997Z,24.87
2022-10-29T18:32:52.950Z,20.57
2022-10-29T18:35:20.659Z,20.03
2022-10-29T18:37:48.215Z,24.87
2022-10-29T18:40:15.883Z,31.33
2022-10-29T18:42:43.543Z,21.17
2022-10-29T18:45:12.888Z,20.17
2022-10-29T18:47:40.702Z,28.80
2022-10-29T18:50:09.083Z,22.10
2022-10-29T18:52:37.057Z,23.20
2022-10-29T18:55:05.023Z,29.63
2022-10-29T18:57:33.112Z,20.60
2022-10-29T19:00:00.740Z,20.87
2022-10-29T19:02:29.718Z,21.07
2022-10-29T19:04:57.416Z,31.63
2022-10-29T19:07:25.069Z,17.63
2022-10-29T19:09:52.587Z,18.40
2022-10-29T19:12:20.206Z,19.57
2022-10-29T19:14:47.796Z,23.13
2022-10-29T19:17:15.354Z,18.37
2022-10-29T19:19:44.408Z,15.17
2022-10-29T19:22:11.947Z,18.80
2022-10-29T19:24:39.510Z,20.03
2022-10-29T19:27:07.077Z,19.37
2022-10-29T19:29:34.751Z,24.67
2022-10-29T19:32:02.346Z,19.90
2022-10-29T19:34:30.005Z,23.53
2022-10-29T19:36:58.999Z,22.27
2022-10-29T19:39:26.597Z,19.93
2022-10-29T19:41:54.426Z,20.37
2022-10-29T19:44:22.109Z,19.73
2022-10-29T19:46:49.819Z,23.77
2022-10-29T19:49:17.473Z,23.03
2022-10-29T19:51:46.219Z,20.03
2022-10-29T19:54:15.120Z,20.57
2022-10-29T19:56:42.683Z,17.43
2022-10-29T19:59:10.586Z,21.27
2022-10-29T20:01:41.498Z,32.13
2022-10-29T20:04:09.240Z,27.40
2022-10-29T20:06:36.975Z,23.57
2022-10-29T20:09:04.713Z,26.23
2022-10-29T20:11:33.879Z,33.07
2022-10-29T20:14:01.621Z,32.70
2022-10-29T20:16:29.470Z,20.27
2022-10-29T20:18:57.099Z,30.17
2022-10-29T20:21:25.197Z,26.60
2022-10-29T20:23:52.763Z,25.63
2022-10-29T20:26:20.446Z,25.17
2022-10-29T20:28:49.491Z,29.60
2022-10-29T20:31:30.395Z,28.87
2022-10-29T20:34:00.274Z,30.97
2022-10-29T20:36:30.259Z,36.23
2022-10-29T20:38:58.403Z,26.23
2022-10-29T20:41:26.092Z,27.60
2022-10-29T20:43:56.772Z,33.23
2022-10-29T20:46:28.384Z,31.03
2022-10-29T20:48:56.482Z,28.37
2022-10-29T20:51:24.390Z,36.03
2022-10-29T20:53:53.655Z,29.10
2022-10-29T20:56:22.649Z,29.60
2022-10-29T20:58:51.008Z,27.03
2022-10-29T21:01:23.972Z,25.13
2022-10-29T21:03:52.418Z,25.53
2022-10-29T21:06:20.626Z,24.13
2022-10-29T21:08:49.060Z,28.33
2022-10-29T21:11:17.954Z,27.00
2022-10-29T21:13:46.225Z,34.07
2022-10-29T21:16:17.513Z,24.90
2022-10-29T21:18:49.460Z,27.00
2022-10-29T21:21:20.002Z,23.77
2022-10-29T21:23:50.045Z,22.40
2022-10-29T21:26:20.077Z,28.60
2022-10-29T21:28:48.643Z,27.50
2022-10-29T21:31:17.945Z,24.83
2022-10-29T21:33:49.567Z,18.30
2022-10-29T21:36:17.197Z,24.97
2022-10-29T21:38:44.944Z,25.90
2022-10-29T21:41:12.691Z,21.70
2022-10-29T21:43:40.487Z,22.90
2022-10-29T21:46:08.333Z,28.70
2022-10-29T21:48:36.453Z,28.20
2022-10-29T21:51:07.800Z,24.90
2022-10-29T21:53:35.730Z,23.53
2022-10-29T21:56:05.511Z,22.43
2022-10-29T21:58:33.172Z,26.57
2022-10-29T22:01:05.951Z,25.20
2022-10-29T22:03:34.897Z,24.60
2022-10-29T22:06:05.137Z,26.73
2022-10-29T22:08:33.376Z,26.53
2022-10-29T22:11:01.178Z,20.93
2022-10-29T22:13:29.746Z,25.40
2022-10-29T22:16:00.066Z,23.17
2022-10-29T22:18:28.344Z,26.03
2022-10-29T22:21:09.734Z,30.40
2022-10-29T22:23:38.771Z,28.03
2022-10-29T22:26:06.363Z,25.00
2022-10-29T22:28:33.967Z,26.53
2022-10-29T22:31:03.479Z,25.03
2022-10-29T22:33:31.127Z,25.53
2022-10-29T22:36:04.890Z,24.80
2022-10-29T22:38:33.792Z,27.43
2022-10-29T22:41:05.517Z,30.33
2022-10-29T22:43:33.652Z,26.60
2022-10-29T22:46:05.880Z,23.17
2022-10-29T22:48:34.975Z,25.53
2022-10-29T22:51:03.914Z,24.77
2022-10-29T22:53:31.867Z,24.03
2022-10-29T22:56:02.384Z,29.83
2022-10-29T22:58:30.256Z,26.50
2022-10-29T23:01:05.802Z,26.80
2022-10-29T23:03:34.262Z,25.37
2022-10-29T23:06:03.538Z,31.47
2022-10-29T23:08:32.143Z,30.57
2022-10-29T23:11:05.530Z,26.43
2022-10-29T23:13:33.186Z,27.63
2022-10-29T23:16:00.897Z,25.27
2022-10-29T23:18:28.543Z,28.80
2022-10-29T23:21:00.399Z,22.47
2022-10-29T23:23:28.085Z,32.33
2022-10-29T23:26:00.605Z,25.80
2022-10-29T23:28:30.211Z,22.70
2022-10-29T23:30:59.030Z,20.33
2022-10-29T23:33:26.647Z,19.60
2022-10-29T23:35:54.687Z,20.77
2022-10-29T23:38:22.462Z,23.20
2022-10-29T23:40:50.155Z,31.30
2022-10-29T23:43:17.728Z,26.40
2022-10-29T23:45:46.642Z,23.17
2022-10-29T23:48:14.270Z,16.33
2022-10-29T23:50:42.332Z,19.93
2022-10-29T23:53:10.079Z,25.83
2022-10-29T23:55:37.682Z,25.50
2022-10-29T23:58:06.163Z,22.90
